createdAt,value
2023-03-12T00:01:21.543Z,-2.26
2023-03-12T00:06:27.549Z,-2.30
2023-03-12T00:11:33.686Z,-2.38
2023-03-12T00:16:39.318Z,-2.44
2023-03-12T00:21:44.839Z,-2.43
2023-03-12T00:26:50.472Z,-2.40
2023-03-12T00:31:56.063Z,-2.43
2023-03-12T00:37:01.621Z,-2.47
2023-03-12T00:42:07.909Z,-2.53
2023-03-12T00:47:13.874Z,-2.58
2023-03-12T00:52:19.459Z,-2.58
2023-03-12T00:57:25.485Z,-2.52
2023-03-12T01:02:31.086Z,-2.44
2023-03-12T01:07:37.097Z,-2.41
2023-03-12T01:12:42.695Z,-2.36
2023-03-12T01:17:48.264Z,-2.24
2023-03-12T01:22:55.004Z,-2.05
2023-03-12T01:28:00.602Z,-1.91
2023-03-12T01:33:06.338Z,-1.81
2023-03-12T01:38:14.701Z,-1.74
2023-03-12T01:43:29.967Z,-1.69
2023-03-12T01:48:40.121Z,-1.60
2023-03-12T01:53:49.683Z,-1.51
2023-03-12T01:58:58.847Z,-1.45
2023-03-12T02:04:05.764Z,-1.39
2023-03-12T02:09:12.740Z,-1.33
2023-03-12T02:14:18.539Z,-1.22
2023-03-12T02:19:34.107Z,-1.13
2023-03-12T02:24:46.531Z,-1.08
2023-03-12T02:29:52.532Z,-1.07
2023-03-12T02:34:59.787Z,-1.07
2023-03-12T02:40:13.274Z,-1.03
2023-03-12T02:45:19.977Z,-1.02
2023-03-12T02:50:25.595Z,-1.02
2023-03-12T02:55:31.308Z,-0.99
2023-03-12T03:00:37.846Z,-0.91
2023-03-12T03:05:43.742Z,-0.83
2023-03-12T03:10:52.756Z,-0.79
2023-03-12T03:15:59.885Z,-0.81
2023-03-12T03:21:09.096Z,-0.80
2023-03-12T03:26:16.619Z,-0.77
2023-03-12T03:31:22.764Z,-0.74
2023-03-12T03:36:29.157Z,-0.72
2023-03-12T03:41:41.678Z,-0.65
2023-03-12T03:46:47.983Z,-0.58
2023-03-12T03:51:54.014Z,-0.54
2023-03-12T03:57:08.303Z,-0.52
2023-03-12T04:02:13.840Z,-0.51
2023-03-12T04:07:21.326Z,-0.49
2023-03-12T04:12:28.090Z,-0.46
2023-03-12T04:17:33.866Z,-0.45
2023-03-12T04:22:40.324Z,-0.45
2023-03-12T04:27:45.931Z,-0.41
2023-03-12T04:32:51.775Z,-0.37
2023-03-12T04:37:57.574Z,-0.35
2023-03-12T04:43:03.659Z,-0.36
2023-03-12T04:48:09.289Z,-0.32
2023-03-12T04:53:15.076Z,-0.28
2023-03-12T04:58:22.349Z,-0.25
2023-03-12T05:05:31.012Z,-0.23
2023-03-12T05:10:36.782Z,-0.25
2023-03-12T05:15:42.374Z,-0.22
2023-03-12T05:20:47.983Z,-0.20
2023-03-12T05:25:53.953Z,-0.20
2023-03-12T05:31:01.391Z,-0.19
2023-03-12T05:36:09.391Z,-0.14
2023-03-12T05:41:21.117Z,-0.08
2023-03-12T05:46:28.542Z,-0.07
2023-03-12T05:51:34.328Z,-0.06
2023-03-12T05:56:40.837Z,0.01
2023-03-12T06:01:46.693Z,0.08
2023-03-12T06:06:52.949Z,0.11
2023-03-12T06:11:58.481Z,0.13
2023-03-12T06:17:04.608Z,0.18
2023-03-12T06:22:10.312Z,0.28
2023-03-12T06:27:16.528Z,0.36
2023-03-12T06:32:22.129Z,0.47
2023-03-12T06:37:28.274Z,0.69
2023-03-12T06:42:33.534Z,0.86
2023-03-12T06:47:38.957Z,0.93
2023-03-12T06:52:44.386Z,0.88
2023-03-12T06:57:50.087Z,0.86
2023-03-12T07:02:55.450Z,0.92
2023-03-12T07:08:01.343Z,1.11
2023-03-12T07:13:07.642Z,1.41
2023-03-12T07:18:13.916Z,2.68
2023-03-12T07:23:20.083Z,5.95
2023-03-12T07:28:25.702Z,7.74
2023-03-12T07:33:31.660Z,7.42
2023-03-12T07:38:37.529Z,9.44
2023-03-12T07:43:43.373Z,8.15
2023-03-12T07:48:48.933Z,6.86
2023-03-12T07:53:54.952Z,5.87
2023-03-12T07:59:00.760Z,8.35
2023-03-12T08:04:06.967Z,8.23
2023-03-12T08:09:13.170Z,7.79
2023-03-12T08:14:19.288Z,6.91
2023-03-12T08:19:26.233Z,6.40
2023-03-12T08:24:47.660Z,5.56
2023-03-12T08:29:53.802Z,6.21
2023-03-12T08:34:59.584Z,5.49
2023-03-12T08:40:13.132Z,4.43
2023-03-12T08:45:20.142Z,3.61
2023-03-12T08:50:29.385Z,5.69
2023-03-12T08:55:35.116Z,7.49
2023-03-12T09:00:40.928Z,8.40
2023-03-12T09:05:47.630Z,8.67
2023-03-12T09:10:53.640Z,9.55
2023-03-12T09:16:04.121Z,9.97
2023-03-12T09:21:09.794Z,11.14
2023-03-12T09:26:18.535Z,10.33
2023-03-12T09:31:24.567Z,11.37
2023-03-12T09:36:31.712Z,13.24
2023-03-12T09:41:41.339Z,14.78
2023-03-12T09:46:51.407Z,14.60
2023-03-12T09:52:02.566Z,12.22
2023-03-12T09:57:22.860Z,9.70
2023-03-12T10:02:53.530Z,8.13
2023-03-12T10:08:17.387Z,7.31
2023-03-12T10:13:52.886Z,6.41
2023-03-12T10:19:10.697Z,5.71
2023-03-12T10:24:31.668Z,5.48
2023-03-12T10:29:39.613Z,5.85
2023-03-12T10:34:49.483Z,6.67
2023-03-12T10:39:56.366Z,8.18
2023-03-12T10:45:21.440Z,8.70
2023-03-12T10:50:41.949Z,9.14
2023-03-12T10:56:14.126Z,9.31
2023-03-12T11:01:24.439Z,9.78
2023-03-12T11:06:31.025Z,10.48
2023-03-12T11:11:37.842Z,10.90
2023-03-12T11:16:43.653Z,10.34
2023-03-12T11:21:59.355Z,9.10
2023-03-12T11:27:32.397Z,8.45
2023-03-12T11:32:41.734Z,8.92
2023-03-12T11:37:59.773Z,9.86
2023-03-12T11:43:29.252Z,10.16
2023-03-12T11:48:52.506Z,9.28
2023-03-12T11:54:19.439Z,8.54
2023-03-12T11:59:39.137Z,7.78
2023-03-12T12:05:01.868Z,6.64
2023-03-12T12:10:19.613Z,5.91
2023-03-12T12:15:34.560Z,5.42
2023-03-12T12:20:48.615Z,5.02
2023-03-12T12:26:07.240Z,5.17
2023-03-12T12:31:30.368Z,5.08
2023-03-12T12:36:37.774Z,5.04
2023-03-12T12:41:51.459Z,4.88
2023-03-12T12:47:01.435Z,4.76
2023-03-12T12:52:12.926Z,4.60
2023-03-12T12:57:18.838Z,4.37
2023-03-12T13:02:29.497Z,4.27
2023-03-12T13:07:35.341Z,4.38
2023-03-12T13:12:52.028Z,4.40
2023-03-12T13:18:20.498Z,4.22
2023-03-12T13:23:38.177Z,4.20
2023-03-12T13:29:11.982Z,4.62
2023-03-12T13:34:51.770Z,4.72
2023-03-12T13:40:02.012Z,4.86
2023-03-12T13:45:25.652Z,5.10
2023-03-12T13:50:32.741Z,5.39
2023-03-12T13:55:49.441Z,5.38
2023-03-12T14:00:57.693Z,5.55
2023-03-12T14:06:12.505Z,5.87
2023-03-12T14:11:42.761Z,6.40
2023-03-12T14:16:51.883Z,6.80
2023-03-12T14:22:01.746Z,6.98
2023-03-12T14:27:14.288Z,7.05
2023-03-12T14:32:23.916Z,7.23
2023-03-12T14:37:38.280Z,7.13
2023-03-12T14:42:43.786Z,7.03
2023-03-12T14:47:52.743Z,6.85
2023-03-12T14:53:14.624Z,6.71
2023-03-12T14:58:21.233Z,6.18
2023-03-12T15:03:28.976Z,5.66
2023-03-12T15:08:39.842Z,5.21
2023-03-12T15:13:47.363Z,4.85
2023-03-12T15:18:53.923Z,4.45
2023-03-12T15:23:59.502Z,4.11
2023-03-12T15:29:16.890Z,3.81
2023-03-12T15:34:34.437Z,3.56
2023-03-12T15:39:40.573Z,3.38
2023-03-12T15:44:49.471Z,3.24
2023-03-12T15:49:57.947Z,3.17
2023-03-12T15:55:26.664Z,3.12
2023-03-12T16:00:43.389Z,3.04
2023-03-12T16:05:50.594Z,2.99
2023-03-12T16:10:57.077Z,2.97
2023-03-12T16:16:02.477Z,2.93
2023-03-12T16:21:08.854Z,2.83
2023-03-12T16:26:15.605Z,2.71
2023-03-12T16:31:21.002Z,2.58
2023-03-12T16:36:28.031Z,2.46
2023-03-12T16:41:33.877Z,2.35
2023-03-12T16:46:39.482Z,2.27
2023-03-12T16:51:45.066Z,2.16
2023-03-12T16:56:50.956Z,2.00
2023-03-12T17:01:56.564Z,1.81
2023-03-12T17:07:02.015Z,1.62
2023-03-12T17:12:15.618Z,1.42
2023-03-12T17:17:23.264Z,1.25
2023-03-12T17:22:28.789Z,1.10
2023-03-12T17:27:34.700Z,1.01
2023-03-12T17:32:40.379Z,0.93
2023-03-12T17:37:48.512Z,0.88
2023-03-12T17:42:54.741Z,0.89
2023-03-12T17:48:00.415Z,0.92
2023-03-12T17:53:05.949Z,0.90
2023-03-12T17:58:11.377Z,0.88
2023-03-12T18:03:17.070Z,0.89
2023-03-12T18:08:23.100Z,0.88
2023-03-12T18:13:28.565Z,0.80
2023-03-12T18:18:34.782Z,0.72
2023-03-12T18:23:42.687Z,0.61
2023-03-12T18:28:49.287Z,0.46
2023-03-12T18:33:54.813Z,0.30
2023-03-12T18:39:04.511Z,0.14
2023-03-12T18:44:10.321Z,0.01
2023-03-12T18:49:16.250Z,-0.04
2023-03-12T18:54:24.584Z,-0.08
2023-03-12T18:59:32.306Z,-0.10
2023-03-12T19:04:38.032Z,-0.11
2023-03-12T19:09:44.111Z,-0.07
2023-03-12T19:14:49.918Z,-0.01
2023-03-12T19:19:55.761Z,0.10
2023-03-12T19:25:01.315Z,0.18
2023-03-12T19:30:08.883Z,0.31
2023-03-12T19:35:15.628Z,0.43
2023-03-12T19:40:21.234Z,0.53
2023-03-12T19:45:26.843Z,0.66
2023-03-12T19:50:32.199Z,0.80
2023-03-12T19:55:37.630Z,0.92
2023-03-12T20:00:43.657Z,0.99
2023-03-12T20:05:50.573Z,1.04
2023-03-12T20:11:02.899Z,1.05
2023-03-12T20:16:11.436Z,1.03
2023-03-12T20:21:17.241Z,0.95
2023-03-12T20:26:22.910Z,0.87
2023-03-12T20:31:28.408Z,0.74
2023-03-12T20:36:33.947Z,0.59
2023-03-12T20:41:39.335Z,0.43
2023-03-12T20:46:46.244Z,0.22
2023-03-12T20:51:51.618Z,0.03
2023-03-12T20:56:57.050Z,-0.14
2023-03-12T21:02:02.577Z,-0.33
2023-03-12T21:07:08.240Z,-0.50
2023-03-12T21:12:14.347Z,-0.61
2023-03-12T21:17:19.822Z,-0.74
2023-03-12T21:22:28.733Z,-0.81
2023-03-12T21:27:47.933Z,-0.87
2023-03-12T21:32:55.785Z,-0.94
2023-03-12T21:38:02.615Z,-0.99
2023-03-12T21:43:08.128Z,-1.02
2023-03-12T21:48:13.922Z,-1.06
2023-03-12T21:53:23.768Z,-1.13
2023-03-12T21:58:30.832Z,-1.22
2023-03-12T22:03:37.334Z,-1.25
2023-03-12T22:08:43.777Z,-1.17
2023-03-12T22:13:49.298Z,-1.01
2023-03-12T22:18:54.954Z,-0.90
2023-03-12T22:24:01.952Z,-0.73
2023-03-12T22:29:08.059Z,-0.63
2023-03-12T22:34:13.417Z,-0.56
2023-03-12T22:39:20.551Z,-0.51
2023-03-12T22:44:26.439Z,-0.49
2023-03-12T22:49:31.876Z,-0.48
2023-03-12T22:54:37.576Z,-0.47
2023-03-12T22:59:43.183Z,-0.46
2023-03-12T23:04:48.668Z,-0.40
2023-03-12T23:09:54.109Z,-0.28
2023-03-12T23:14:59.764Z,-0.17
2023-03-12T23:20:08.088Z,-0.12
2023-03-12T23:25:13.845Z,-0.08
2023-03-12T23:30:19.626Z,-0.05
2023-03-12T23:35:25.364Z,-0.05
2023-03-12T23:40:30.865Z,-0.06
2023-03-12T23:45:36.651Z,-0.06
2023-03-12T23:50:42.160Z,-0.07
2023-03-12T23:55:57.169Z,-0.04
